Whale Point, California Weather observations

Data are for observation ending at time listed.
 Day   Time    Ave.   Ave.  Ave.  Vector   Max.   Stn.    Total    Solar   Ave.  
  of    of     Air    Rel.  Wind   Wind    Wind   Baro.  Precip.   Rad.    Soil  
Year   Day     Temp.  Hum.  Speed  Dir.    Gust   Pres.                    Temp. 
2026   (PST)    F      %     mph   deg.    mph     mb.     in.     W/m2     F   
------------------------------------------------------------------------------
 129    0:00   44.2   100    4.2    32      6.6   993.3    0.00    3405    68.6
 129    0:10   44.2   100    1.4    69      4.0   993.3    0.00    3357    68.5
 129    0:20   43.8   100    1.8     9      3.7   993.1    0.00    3279    68.4
 129    0:30   44.5   100    1.6   164      3.9   993.2    0.00    3276    68.3
 129    0:40   44.5   100    1.0   171      2.6   993.2    0.00    3274    68.3
 129    0:50   44.5   100    0.5    75      1.5   993.2    0.00    3202    68.2
 129    1:00   44.7    94    1.3    24      2.6   993.1    0.00    3141    68.1
 129    1:10   44.7    89    1.5   174      3.7   993.0    0.00    3121    68.0
 129    1:20   43.5    90    2.2   172      4.5   993.0    0.00    3078    67.9
 129    1:30   43.0    94    2.2   152      3.5   993.0    0.00    3081    67.8
 129    1:40   43.2    95    2.8   146      4.0   993.0    0.00    3133    67.7
 129    1:50   43.0    96    1.4   102      2.5   992.9    0.00    3125    67.6
 129    2:00   43.2    97    1.6   134      3.6   992.9    0.00    3110    67.6
 129    2:10   43.5    95    1.5   144      3.7   992.9    0.00    3123    67.5
 129    2:20   43.5    93    1.3   144      2.7   992.9    0.00    3136    67.4
 129    2:30   43.3    93    0.7   126      1.9   992.9    0.00    3077    67.3
 129    2:40   42.8    92    0.3   145      1.5   992.8    0.00    3064    67.2
 129    2:50   41.6    92    0.3   291      1.0   992.7    0.00    3058    67.1
 129    3:00   41.1    92    0.5   195      1.8   992.8    0.00    3098    67.1
 129    3:10   40.7    94    0.6   124      1.5   992.8    0.00    3131    67.0
 129    3:20   40.5    95    0.4    50      1.5   992.8    0.00    3158    66.9
 129    3:30   40.2    95    1.5     8      2.3   992.9    0.00    3185    66.8
 129    3:40   40.0    96    1.2    24      2.6   992.9    0.00    3223    66.7
 129    3:50   39.9    97    1.8    20      3.7   992.8    0.00    3235    66.6
 129    4:00   39.5    98    1.2   170      3.2   992.8    0.00    3229    66.6
 129    4:10   39.5   100    1.4   126      2.9   992.8    0.00    3229    66.5
 129    4:20   39.6   100    0.6    66      2.0   992.9    0.00    3229    66.4
 129    4:30   39.5   100    0.6    55      1.6   992.8    0.00    3186    66.3
 129    4:40   39.4   100    1.6   115      2.6   992.9    0.00    3202    66.2
 129    4:50   38.9   100    1.6   152      3.0   992.9    0.00    3177    66.2
 129    5:00   38.5   100    2.0   150      2.9   993.0    0.00    3169    66.1
 129    5:10   38.1   100    1.3   164      2.4   993.1    0.00    3163    66.0
 129    5:20   38.0   100    1.4   142      2.0   993.2    0.00    3180    65.9
 129    5:30   38.1   100    0.6    87      1.8   993.3    0.00    3188    65.9
 129    5:40   37.9   100    2.1    21      6.7   993.2    0.00    3196    65.8
 129    5:50   37.6   100    2.1   150      4.2   993.2    0.00    3217    65.7
 129    6:00   37.3   100    1.9   166      3.9   993.3    0.00    3207    65.6
 129    6:10   37.7   100    0.6    96      1.5   993.4    0.00    3205    65.5
 129    6:20   37.8   100    0.2   340      1.3   993.4    0.00    3197    65.5
 129    6:30   37.8   100    1.2   132      2.1   993.5    0.00    3152    65.4
 129    6:40   38.1   100    1.4   188      2.4   993.5    0.00    3148    65.3
 129    6:50   38.2   100    1.5   200      2.8   993.5    0.00    3022    65.2
 129    7:00   38.4   100    1.0   228      2.9   993.5    0.00    2974    65.2
 129    7:10   38.6   100    1.7   219      4.3   993.6    0.00    2826    65.1
 129    7:20   38.5   100    1.3   222      2.6   993.7    0.00    2654    65.0
 129    7:30   38.9   100    0.8   154      2.7   993.7    0.00    2484    65.0
 129    7:40   39.5    99    2.1   199      3.5   993.7    0.00    2232    64.9
 129    7:50   39.4    98    3.8   209      5.6   993.8    0.00    1998    64.9
 129    8:00   38.8    99    2.9   221      4.5   993.9    0.00    1923    64.8
 129    8:10   38.9   100    2.4   222      4.5   993.7    0.00    1922    64.8
 129    8:20   39.2   100    2.3   220      4.1   993.6    0.00    1879    64.8
 129    8:30   39.9    99    1.6   196      3.7   993.6    0.00    1760    64.7
 129    8:40   40.6    95    2.2   208      3.9   993.6    0.00    1514    64.7
 129    8:50   40.5    93    3.7   219      5.5   993.7    0.00    1342    64.7
 129    9:00   40.1    94    3.9   216      6.2   993.8    0.00    1263    64.7
 129    9:10   40.2    93    4.1   212      6.0   993.8    0.00    1242    64.7
 129    9:20   40.4    93    3.8   210      5.9   993.8    0.00    1216    64.7
 129    9:30   41.0    90    3.4   212      5.6   993.8    0.00    1135    64.7
 129    9:40   41.3    89    3.0   214      5.8   993.8    0.00    1052    64.7
 129    9:50   42.1    88    3.4   212      5.9   993.8    0.00     942    64.7
 129   10:00   42.6    88    3.7   205      5.6   993.8    0.00     845    64.7
 129   10:10   43.4    86    4.1   198      5.8   993.8    0.00     746    64.8
 129   10:20   44.1    83    3.9   199      5.7   993.8    0.00     662    64.8
 129   10:30   44.2    84    4.9   207      6.4   993.8    0.00     673    64.8
 129   10:40   43.9    87    4.6   212      6.9   993.9    0.00     724    64.9
 129   10:50   45.3    83    4.6   210      6.6   993.8    0.00     675    64.9
 129   11:00   45.8    80    5.0   210      7.5   993.9    0.00     624    65.0
 129   11:10   45.5    82    4.5   216      6.2   993.8    0.00     684    65.0
 129   11:20   46.5    80    5.1   205      7.7   993.7    0.00     674    65.0
 129   11:30   47.5    76    4.0   217      6.1   993.5    0.00     673    65.1
 129   11:40   47.7    77    4.2   216      6.1   993.4    0.00     685    65.1
 129   11:50   48.3    77    3.9   212      6.6   993.3    0.00     694    65.2
 129   12:00   49.4    75    4.6   207      6.8   993.3    0.00     674    65.2
 129   12:10   50.0    74    4.7   212      7.2   993.3    0.00     719    65.3
 129   12:20   50.1    74    4.4   215      6.8   993.1    0.00     746    65.3
 129   12:30   49.9    76    4.8   216      7.2   993.0    0.00     799    65.4
 129   12:40   51.1    74    4.5   218      8.4   993.0    0.00     801    65.5
 129   12:50   52.5    71    4.1   212      7.0   993.0    0.00     818    65.6
 129   13:00   52.9    73    5.5   214      7.8   993.0    0.00     822    65.7
 129   13:10   53.9    71    4.6   221      7.9   992.9    0.00     817    65.8
 129   13:20   54.3    72    4.5   214      7.6   992.9    0.00     839    65.9
 129   13:30   55.2    70    5.0   219      7.5   992.9    0.00     811    66.1
 129   13:40   56.0    69    4.2   218      8.3   992.8    0.00     842    66.3
 129   13:50   56.6    68    5.3   221      8.6   992.7    0.00     791    66.4
 129   14:00   56.8    68    3.8   219      7.5   992.7    0.00     755    66.6
 129   14:10   56.9    68    4.4   220      9.1   992.6    0.00     738    66.7
 129   14:20   57.9    64    4.7   220      9.2   992.6    0.00     637    66.9
 129   14:30   56.9    67    4.8   220      9.0   992.5    0.00     657    67.1
 129   14:40   56.6    68    5.3   214      9.3   992.3    0.00     632    67.3
 129   14:50   57.2    67    3.8   213      7.5   992.2    0.00     636    67.4
 129   15:00   56.8    66    5.1   205      9.3   992.1    0.00     592    67.6
 129   15:10   56.7    68    5.0   214      9.1   992.1    0.00     618    67.8
 129   15:20   56.7    68    4.7   218      8.5   992.0    0.00     618    68.0
 129   15:30   57.3    66    4.3   216      8.0   992.0    0.00     601    68.1
 129   15:40   57.6    65    4.3   220      8.4   992.0    0.00     586    68.3
 129   15:50   57.4    66    4.5   217      8.9   992.0    0.00     599    68.5
 129   16:00   56.7    67    4.3   216      9.2   991.8    0.00     663    68.7
 129   16:10   56.6    68    4.6   217      7.2   991.7    0.00     708    68.9
 129   16:20   56.8    68    4.1   213      8.1   991.7    0.00     729    69.0
 129   16:30   56.7    69    3.7   213      6.9   991.7    0.00     765    69.2
 129   16:40   57.3    66    4.4   217      8.7   991.7    0.00     769    69.4
 129   16:50   56.8    69    3.5   207      6.4   991.6    0.00     865    69.5
 129   17:00   56.5    70    3.8   221      7.0   991.6    0.00     921    69.7
 129   17:10   56.7    69    3.6   205      6.7   991.5    0.00     966    69.8
 129   17:20   57.0    68    3.9   202      6.8   991.4    0.00     988    70.0
 129   17:30   56.3    70    3.8   207      7.8   991.4    0.00    1085    70.1
 129   17:40   56.2    70    3.1   208      6.2   991.2    0.00    1161    70.2
 129   17:50   56.4    70    3.6   204      7.2   991.1    0.00    1204    70.3
 129   18:00   56.1    71    2.5   199      5.0   991.1    0.00    1274    70.4
 129   18:10   55.6    72    2.4   207      5.4   991.1    0.00    1356    70.4
 129   18:20   55.4    72    3.3   199      6.1   991.0    0.00    1386    70.5
 129   18:30   54.9    74    2.3   205      5.0   991.0    0.00    1457    70.6
 129   18:40   54.3    75    2.3   186      5.2   991.0    0.00    1522    70.6
 129   18:50   53.5    78    2.1   173      3.9   991.0    0.00    1598    70.7
 129   19:00   52.0    83    1.8   184      3.9   991.0    0.00    1638    70.8
 129   19:10   51.4    86    2.5   150      6.3   991.1    0.00    1717    70.8
 129   19:20   51.0    88    3.0   137      6.0   991.1    0.00    1824    70.8
 129   19:30   50.7    89    0.8   176      3.5   991.1    0.00    1948    70.8
 129   19:40   50.3    90    1.7   148      3.6   991.1    0.00    2033    70.7
 129   19:50   50.2    91    2.9   133      7.8   991.2    0.00    2154    70.7
 129   20:00   50.4    91    4.8   135      8.3   991.3    0.00    2264    70.6
 129   20:10   50.1    91    3.1   129      7.7   991.4    0.00    2346    70.6
 129   20:20   49.9    92    4.0   129      7.5   991.4    0.00    2409    70.6
 129   20:30   49.8    91    1.6   166      5.0   991.5    0.00    2482    70.5
 129   20:40   49.6    92    3.2   139      5.9   991.6    0.00    2536    70.4
 129   20:50   49.4    92    2.7   153      6.0   991.6    0.00    2581    70.4
 129   21:00   48.9    93    3.1   152      7.7   991.7    0.00    2615    70.3
 129   21:10   48.6    93    3.3   147      8.3   991.7    0.00    2655    70.2
 129   21:20   48.0    93    2.3   170      5.1   991.8    0.00    2718    70.1
 129   21:30   47.8    93    3.0   147      7.0   991.8    0.00    2756    70.1
 129   21:40   47.7    93    3.6   135      7.5   991.8    0.00    2823    70.0
 129   21:50   47.7    92    4.1   126      7.7   991.8    0.00    2895    69.9
 129   22:00   47.7    91    4.1   126      8.8   991.8    0.00    2900    69.8
 129   22:10   47.8    90    4.5   122      8.0   991.7    0.00    2905    69.7
 129   22:20   47.8    90    4.2   122      8.3   991.6    0.00    2910    69.6
 129   22:30   47.6    90    0.9   138      3.8   991.6    0.00    2888    69.5
 129   22:40   47.2    91    1.1   211      2.9   991.6    0.00    2850    69.4
 129   22:50   46.7    92    2.1   163      4.7   991.7    0.00    2854    69.3
 129   23:00   46.4    94    3.8   148      7.4   991.7    0.00    2927    69.3
 129   23:10   46.2    96    3.5   122      7.1   991.8    0.00    2971    69.2
 129   23:20   45.9    98    4.5   145      8.3   991.8    0.00    3008    69.1
 129   23:30   45.7    99    1.4   128      6.6   991.9    0.00    3013    69.0
 129   23:40   45.6   100    1.6    73      3.7   992.0    0.00    2983    68.9
 129   23:50   45.4   100    2.3   118      4.2   992.0    0.00    2939    68.8

Return to Whale Point graphs page.


Western Regional Climate Center,wrcc@dri.edu